createdAt,value
2023-05-19T00:01:52.653Z,84.67
2023-05-19T00:04:40.740Z,84.82
2023-05-19T00:07:18.837Z,84.79
2023-05-19T00:09:57.708Z,84.80
2023-05-19T00:12:38.881Z,84.83
2023-05-19T00:15:33.013Z,84.64
2023-05-19T00:18:26.662Z,84.60
2023-05-19T00:20:59.738Z,84.51
2023-05-19T00:23:32.394Z,84.53
2023-05-19T00:26:05.127Z,84.56
2023-05-19T00:28:38.316Z,84.63
2023-05-19T00:31:13.954Z,84.66
2023-05-19T00:33:49.795Z,84.73
2023-05-19T00:36:22.501Z,84.78
2023-05-19T00:38:57.440Z,84.79
2023-05-19T00:41:36.065Z,84.82
2023-05-19T00:44:09.620Z,84.71
2023-05-19T00:46:44.805Z,84.68
2023-05-19T00:49:20.632Z,84.69
2023-05-19T00:51:55.182Z,84.64
2023-05-19T00:54:31.616Z,84.55
2023-05-19T00:57:07.673Z,84.57
2023-05-19T00:59:40.696Z,84.59
2023-05-19T01:02:16.287Z,84.64
2023-05-19T01:04:53.724Z,84.69
2023-05-19T01:07:29.220Z,84.79
2023-05-19T01:10:05.681Z,84.82
2023-05-19T01:12:58.386Z,84.88
2023-05-19T01:15:35.498Z,84.90
2023-05-19T01:18:26.110Z,84.97
2023-05-19T01:21:10.966Z,84.93
2023-05-19T01:23:57.231Z,84.95
2023-05-19T01:26:56.510Z,85.01
2023-05-19T01:29:44.250Z,85.06
2023-05-19T01:32:22.348Z,85.09
2023-05-19T01:34:56.800Z,85.11
2023-05-19T01:37:33.371Z,85.19
2023-05-19T01:40:16.715Z,85.20
2023-05-19T01:42:55.541Z,85.38
2023-05-19T01:45:34.178Z,85.32
2023-05-19T01:48:10.880Z,85.32
2023-05-19T01:50:57.347Z,85.31
2023-05-19T01:53:32.648Z,85.40
2023-05-19T01:56:06.679Z,85.47
2023-05-19T01:58:54.273Z,85.43
2023-05-19T02:01:37.279Z,85.48
2023-05-19T02:04:28.767Z,85.47
2023-05-19T02:07:03.060Z,85.54
2023-05-19T02:09:50.491Z,85.46
2023-05-19T02:12:34.333Z,85.57
2023-05-19T02:15:15.992Z,85.55
2023-05-19T02:17:54.788Z,85.60
2023-05-19T02:20:30.482Z,85.66
2023-05-19T02:23:06.897Z,85.70
2023-05-19T02:25:44.704Z,85.71
2023-05-19T02:28:20.887Z,85.69
2023-05-19T02:31:08.911Z,85.71
2023-05-19T02:33:44.387Z,85.75
2023-05-19T02:36:16.945Z,85.63
2023-05-19T02:39:01.148Z,85.55
2023-05-19T02:41:37.066Z,85.52
2023-05-19T02:44:13.068Z,85.47
2023-05-19T02:47:06.145Z,85.33
2023-05-19T02:49:48.828Z,85.35
2023-05-19T02:52:21.510Z,85.35
2023-05-19T02:54:56.867Z,85.32
2023-05-19T02:57:38.626Z,85.37
2023-05-19T03:00:13.277Z,85.35
2023-05-19T03:02:46.161Z,85.29
2023-05-19T03:05:23.310Z,85.27
2023-05-19T03:07:59.378Z,85.27
2023-05-19T03:10:43.175Z,85.15
2023-05-19T03:13:20.483Z,85.17
2023-05-19T03:15:57.948Z,85.11
2023-05-19T03:18:35.633Z,85.08
2023-05-19T03:21:08.719Z,85.07
2023-05-19T03:23:44.367Z,85.01
2023-05-19T03:26:19.771Z,85.09
2023-05-19T03:28:55.254Z,85.12
2023-05-19T03:31:48.168Z,84.86
2023-05-19T03:34:23.998Z,84.84
2023-05-19T03:36:59.339Z,84.73
2023-05-19T03:39:35.454Z,84.69
2023-05-19T03:42:11.245Z,84.68
2023-05-19T03:44:46.425Z,84.65
2023-05-19T03:47:22.772Z,84.61
2023-05-19T03:50:25.080Z,84.63
2023-05-19T03:53:02.000Z,84.66
2023-05-19T03:55:48.618Z,84.59
2023-05-19T03:58:21.362Z,84.56
2023-05-19T04:01:05.017Z,84.56
2023-05-19T04:03:40.172Z,84.49
2023-05-19T04:06:15.869Z,84.40
2023-05-19T04:08:50.569Z,84.40
2023-05-19T04:11:26.359Z,84.17
2023-05-19T04:14:01.631Z,83.96
2023-05-19T04:16:37.217Z,83.82
2023-05-19T04:19:10.043Z,83.46
2023-05-19T04:21:47.967Z,83.25
2023-05-19T04:24:20.823Z,83.13
2023-05-19T04:26:56.326Z,83.01
2023-05-19T04:29:32.714Z,82.82
2023-05-19T04:32:25.991Z,82.70
2023-05-19T04:35:03.542Z,82.68
2023-05-19T04:37:40.659Z,82.78
2023-05-19T04:40:34.629Z,82.87
2023-05-19T04:43:19.405Z,83.06
2023-05-19T04:46:06.462Z,83.11
2023-05-19T04:48:42.963Z,83.16
2023-05-19T04:51:18.782Z,83.34
2023-05-19T04:53:51.736Z,83.36
2023-05-19T04:56:27.620Z,83.35
2023-05-19T04:59:03.874Z,83.41
2023-05-19T05:01:40.384Z,83.37
2023-05-19T05:04:17.634Z,83.47
2023-05-19T05:06:53.537Z,83.38
2023-05-19T05:09:26.601Z,83.16
2023-05-19T05:12:07.637Z,83.01
2023-05-19T05:14:51.335Z,82.81
2023-05-19T05:17:33.412Z,82.60
2023-05-19T05:20:08.393Z,81.67
2023-05-19T05:23:02.515Z,81.25
2023-05-19T05:25:37.402Z,80.92
2023-05-19T05:28:10.228Z,80.25
2023-05-19T05:30:43.791Z,79.79
2023-05-19T05:33:17.456Z,79.32
2023-05-19T05:35:51.220Z,79.13
2023-05-19T05:38:25.817Z,79.16
2023-05-19T05:41:00.546Z,79.10
2023-05-19T05:43:33.623Z,78.94
2023-05-19T05:46:08.433Z,78.85
2023-05-19T05:48:43.090Z,78.70
2023-05-19T05:51:18.255Z,78.52
2023-05-19T05:53:55.767Z,78.42
2023-05-19T05:56:35.073Z,78.26
2023-05-19T05:59:12.201Z,78.31
2023-05-19T06:01:45.608Z,78.00
2023-05-19T06:04:18.014Z,78.38
2023-05-19T06:06:52.721Z,78.57
2023-05-19T06:09:27.986Z,78.72
2023-05-19T06:12:02.758Z,78.55
2023-05-19T06:14:39.419Z,78.73
2023-05-19T06:17:22.514Z,78.70
2023-05-19T06:19:59.766Z,78.75
2023-05-19T06:22:36.143Z,78.52
2023-05-19T06:25:14.080Z,78.14
2023-05-19T06:27:50.278Z,78.12
2023-05-19T06:30:26.132Z,78.08
2023-05-19T06:33:19.062Z,78.08
2023-05-19T06:35:51.939Z,78.18
2023-05-19T06:38:28.911Z,78.20
2023-05-19T06:41:04.586Z,78.54
2023-05-19T06:43:41.643Z,78.42
2023-05-19T06:46:19.368Z,78.01
2023-05-19T06:48:54.471Z,77.72
2023-05-19T06:51:28.565Z,77.41
2023-05-19T06:54:03.245Z,77.39
2023-05-19T06:56:38.459Z,77.50
2023-05-19T06:59:13.212Z,77.33
2023-05-19T07:01:45.874Z,76.81
2023-05-19T07:04:22.763Z,76.36
2023-05-19T07:06:55.543Z,76.29
2023-05-19T07:09:38.576Z,76.26
2023-05-19T07:12:31.230Z,76.36
2023-05-19T07:15:23.936Z,76.51
2023-05-19T07:18:07.139Z,76.32
2023-05-19T07:20:41.958Z,76.16
2023-05-19T07:23:21.979Z,75.91
2023-05-19T07:25:59.127Z,75.90
2023-05-19T07:28:43.634Z,75.15
2023-05-19T07:31:17.601Z,74.69
2023-05-19T07:33:53.018Z,74.37
2023-05-19T07:36:27.269Z,74.77
2023-05-19T07:39:11.037Z,74.70
2023-05-19T07:41:55.829Z,74.91
2023-05-19T07:44:48.730Z,75.21
2023-05-19T07:47:32.759Z,74.83
2023-05-19T07:50:10.330Z,74.66
2023-05-19T07:53:05.251Z,74.69
2023-05-19T07:55:48.309Z,74.87
2023-05-19T07:58:41.439Z,74.71
2023-05-19T08:01:34.367Z,74.52
2023-05-19T08:04:27.962Z,74.32
2023-05-19T08:07:20.823Z,74.27
2023-05-19T08:10:03.517Z,73.77
2023-05-19T08:12:59.122Z,73.41
2023-05-19T08:15:52.216Z,73.61
2023-05-19T08:18:46.392Z,73.47
2023-05-19T08:21:39.622Z,73.19
2023-05-19T08:24:36.274Z,73.20
2023-05-19T08:27:29.365Z,73.84
2023-05-19T08:30:23.597Z,73.85
2023-05-19T08:33:07.189Z,73.23
2023-05-19T08:35:40.092Z,72.84
2023-05-19T08:38:23.196Z,72.82
2023-05-19T08:40:58.184Z,73.04
2023-05-19T08:43:50.859Z,72.49
2023-05-19T08:46:43.985Z,72.03
2023-05-19T08:49:44.451Z,72.04
2023-05-19T08:52:49.462Z,72.02
2023-05-19T08:55:43.436Z,72.15
2023-05-19T08:58:39.523Z,71.89
2023-05-19T09:01:28.300Z,71.54
2023-05-19T09:04:22.341Z,71.02
2023-05-19T09:07:18.909Z,71.10
2023-05-19T09:09:52.168Z,71.21
2023-05-19T09:12:47.639Z,71.16
2023-05-19T09:15:42.479Z,71.36
2023-05-19T09:18:35.604Z,71.69
2023-05-19T09:21:19.128Z,71.95
2023-05-19T09:24:13.105Z,72.20
2023-05-19T09:27:06.370Z,72.34
2023-05-19T09:29:42.052Z,72.46
2023-05-19T09:32:36.786Z,72.27
2023-05-19T09:35:29.951Z,72.15
2023-05-19T09:38:23.043Z,71.94
2023-05-19T09:41:17.642Z,71.93
2023-05-19T09:44:13.754Z,71.35
2023-05-19T09:47:07.195Z,70.76
2023-05-19T09:50:00.384Z,70.57
2023-05-19T09:52:53.487Z,70.37
2023-05-19T09:55:47.555Z,69.40
2023-05-19T09:58:43.034Z,69.16
2023-05-19T10:01:37.680Z,68.55
2023-05-19T10:04:31.708Z,68.54
2023-05-19T10:07:26.724Z,68.35
2023-05-19T10:10:21.256Z,68.38
2023-05-19T10:13:15.417Z,68.18
2023-05-19T10:16:10.028Z,67.76
2023-05-19T10:19:03.804Z,67.56
2023-05-19T10:21:57.325Z,67.23
2023-05-19T10:24:50.258Z,67.06
2023-05-19T10:27:35.124Z,67.14
2023-05-19T10:30:38.831Z,67.43
2023-05-19T10:33:38.155Z,67.36
2023-05-19T10:36:40.659Z,67.15
2023-05-19T10:39:37.628Z,67.23
2023-05-19T10:42:34.964Z,67.17
2023-05-19T10:45:32.072Z,67.26
2023-05-19T10:48:24.984Z,67.17
2023-05-19T10:51:19.057Z,67.56
2023-05-19T10:54:16.115Z,67.63
2023-05-19T10:57:10.097Z,67.62
2023-05-19T11:00:11.732Z,67.35
2023-05-19T11:03:17.933Z,67.47
2023-05-19T11:06:29.491Z,68.06
2023-05-19T11:09:37.883Z,67.59
2023-05-19T11:12:44.900Z,67.35
2023-05-19T11:15:39.166Z,67.09
2023-05-19T11:18:41.085Z,67.18
2023-05-19T11:21:47.169Z,67.01
2023-05-19T11:24:41.963Z,66.60
2023-05-19T11:27:32.877Z,66.81
2023-05-19T11:30:26.253Z,67.33
2023-05-19T11:33:09.267Z,66.62
2023-05-19T11:36:02.137Z,66.12
2023-05-19T11:38:55.391Z,66.23
2023-05-19T11:41:43.289Z,66.37
2023-05-19T11:44:38.784Z,66.84
2023-05-19T11:47:23.816Z,66.82
2023-05-19T11:50:07.801Z,67.03
2023-05-19T11:52:51.689Z,67.08
2023-05-19T11:55:25.051Z,66.78
2023-05-19T11:58:10.428Z,66.71
2023-05-19T12:00:52.800Z,66.51
2023-05-19T12:03:46.745Z,66.99
2023-05-19T12:06:23.126Z,66.86
2023-05-19T12:08:57.483Z,66.70
2023-05-19T12:11:41.438Z,66.73
2023-05-19T12:14:16.537Z,66.79
2023-05-19T12:16:49.420Z,67.27
2023-05-19T12:19:24.391Z,67.24
2023-05-19T12:22:08.410Z,67.31
2023-05-19T12:24:44.227Z,67.00
2023-05-19T12:27:39.401Z,66.85
2023-05-19T12:30:15.526Z,66.77
2023-05-19T12:32:52.276Z,66.74
2023-05-19T12:35:38.965Z,67.00
2023-05-19T12:38:22.356Z,67.12
2023-05-19T12:41:15.964Z,66.89
2023-05-19T12:44:18.418Z,66.96
2023-05-19T12:46:58.559Z,66.81
2023-05-19T12:50:04.789Z,66.84
2023-05-19T12:52:59.734Z,66.99
2023-05-19T12:55:56.104Z,66.77
2023-05-19T12:58:41.644Z,67.27
2023-05-19T13:01:25.741Z,66.96
2023-05-19T13:04:06.052Z,67.02
2023-05-19T13:06:39.621Z,66.87
2023-05-19T13:09:17.052Z,66.47
2023-05-19T13:12:09.482Z,66.35
2023-05-19T13:15:00.952Z,65.98
2023-05-19T13:17:46.541Z,65.88
2023-05-19T13:20:41.004Z,66.02
2023-05-19T13:23:35.602Z,65.81
2023-05-19T13:26:16.985Z,65.64
2023-05-19T13:29:02.345Z,65.71
2023-05-19T13:31:55.304Z,65.80
2023-05-19T13:34:48.214Z,66.20
2023-05-19T13:37:31.797Z,66.33
2023-05-19T13:40:15.870Z,66.57
2023-05-19T13:42:53.462Z,67.02
2023-05-19T13:45:30.302Z,66.81
2023-05-19T13:48:08.660Z,66.92
2023-05-19T13:51:02.423Z,67.23
2023-05-19T13:53:43.910Z,67.13
2023-05-19T13:56:37.122Z,67.14
2023-05-19T13:59:29.930Z,67.47
2023-05-19T14:02:22.607Z,67.63
2023-05-19T14:05:15.894Z,67.89
2023-05-19T14:08:01.243Z,67.69
2023-05-19T14:10:57.190Z,67.69
2023-05-19T14:13:33.852Z,67.63
2023-05-19T14:16:23.205Z,67.80
2023-05-19T14:19:07.884Z,67.75
2023-05-19T14:21:54.524Z,67.84
2023-05-19T14:24:29.604Z,67.86
2023-05-19T14:27:02.658Z,68.48
2023-05-19T14:29:38.921Z,68.70
2023-05-19T14:32:31.617Z,68.81
2023-05-19T14:35:24.275Z,69.03
2023-05-19T14:38:10.189Z,69.22
2023-05-19T14:41:03.360Z,69.39
2023-05-19T14:43:55.328Z,69.01
2023-05-19T14:46:42.503Z,69.02
2023-05-19T14:49:15.288Z,68.88
2023-05-19T14:52:02.050Z,69.05
2023-05-19T14:54:41.070Z,68.88
2023-05-19T14:57:13.423Z,68.88
2023-05-19T14:59:46.619Z,69.14
2023-05-19T15:02:18.819Z,69.35
2023-05-19T15:04:51.284Z,69.71
2023-05-19T15:07:24.756Z,70.12
2023-05-19T15:09:57.405Z,70.41
2023-05-19T15:12:30.045Z,70.60
2023-05-19T15:15:02.944Z,70.54
2023-05-19T15:17:35.807Z,70.48
2023-05-19T15:20:10.390Z,70.66
2023-05-19T15:22:43.024Z,70.88
2023-05-19T15:25:15.781Z,71.17
2023-05-19T15:27:48.280Z,71.17
2023-05-19T15:30:21.213Z,71.27
2023-05-19T15:32:53.988Z,71.38
2023-05-19T15:35:26.796Z,71.61
2023-05-19T15:38:19.615Z,71.63
2023-05-19T15:41:13.103Z,71.75
2023-05-19T15:43:46.714Z,72.15
2023-05-19T15:46:21.871Z,72.19
2023-05-19T15:48:55.168Z,72.12
2023-05-19T15:51:32.440Z,71.90
2023-05-19T15:54:05.292Z,72.10
2023-05-19T15:56:41.468Z,72.22
2023-05-19T15:59:17.627Z,72.33
2023-05-19T16:02:07.250Z,72.48
2023-05-19T16:04:42.390Z,72.46
2023-05-19T16:07:20.908Z,72.70
2023-05-19T16:10:05.320Z,72.84
2023-05-19T16:12:41.454Z,72.81
2023-05-19T16:15:34.776Z,73.11
2023-05-19T16:18:10.362Z,73.13
2023-05-19T16:20:45.510Z,73.09
2023-05-19T16:23:21.149Z,73.00
2023-05-19T16:25:57.617Z,72.93
2023-05-19T16:28:30.583Z,73.13
2023-05-19T16:31:12.350Z,73.28
2023-05-19T16:33:48.213Z,73.21
2023-05-19T16:36:27.595Z,73.16
2023-05-19T16:39:10.070Z,73.19
2023-05-19T16:41:53.182Z,73.27
2023-05-19T16:44:36.870Z,73.40
2023-05-19T16:47:29.885Z,73.45
2023-05-19T16:50:11.046Z,73.61
2023-05-19T16:52:46.802Z,74.01
2023-05-19T16:55:20.895Z,74.10
2023-05-19T16:57:57.162Z,74.13
2023-05-19T17:00:30.722Z,74.05
2023-05-19T17:03:09.148Z,74.03
2023-05-19T17:05:51.213Z,74.05
2023-05-19T17:08:34.821Z,74.07
2023-05-19T17:11:09.773Z,74.17
2023-05-19T17:13:52.260Z,74.51
2023-05-19T17:16:37.780Z,74.98
2023-05-19T17:19:14.040Z,75.16
2023-05-19T17:21:46.883Z,74.97
2023-05-19T17:24:19.728Z,75.20
2023-05-19T17:26:52.571Z,75.52
2023-05-19T17:29:27.101Z,76.16
2023-05-19T17:31:59.781Z,76.56
2023-05-19T17:34:32.233Z,76.54
2023-05-19T17:37:05.141Z,76.60
2023-05-19T17:39:39.090Z,76.10
2023-05-19T17:42:11.926Z,75.93
2023-05-19T17:44:44.957Z,75.96
2023-05-19T17:47:17.278Z,76.04
2023-05-19T17:49:50.463Z,76.19
2023-05-19T17:52:26.599Z,76.60
2023-05-19T17:55:00.001Z,76.62
2023-05-19T17:57:34.721Z,76.69
2023-05-19T18:00:10.597Z,76.70
2023-05-19T18:02:44.292Z,76.82
2023-05-19T18:05:18.819Z,77.11
2023-05-19T18:07:51.293Z,77.28
2023-05-19T18:10:27.096Z,77.09
2023-05-19T18:13:00.453Z,77.06
2023-05-19T18:15:33.046Z,77.06
2023-05-19T18:18:07.935Z,77.14
2023-05-19T18:20:44.489Z,77.28
2023-05-19T18:23:17.397Z,77.42
2023-05-19T18:25:53.562Z,77.55
2023-05-19T18:28:26.590Z,77.67
2023-05-19T18:31:06.304Z,77.88
2023-05-19T18:33:40.133Z,78.28
2023-05-19T18:36:13.617Z,78.42
2023-05-19T18:38:58.201Z,78.53
2023-05-19T18:41:32.246Z,78.78
2023-05-19T18:44:06.340Z,78.94
2023-05-19T18:46:39.840Z,79.26
2023-05-19T18:49:25.141Z,79.87
2023-05-19T18:51:58.246Z,79.98
2023-05-19T18:54:32.594Z,79.65
2023-05-19T18:57:05.359Z,79.53
2023-05-19T18:59:38.328Z,79.58
2023-05-19T19:02:11.177Z,79.66
2023-05-19T19:04:45.519Z,79.91
2023-05-19T19:07:18.291Z,80.21
2023-05-19T19:09:50.821Z,80.45
2023-05-19T19:12:25.212Z,80.77
2023-05-19T19:14:57.734Z,81.00
2023-05-19T19:17:30.660Z,81.16
2023-05-19T19:20:03.283Z,81.16
2023-05-19T19:22:38.739Z,81.31
2023-05-19T19:25:12.289Z,81.63
2023-05-19T19:27:45.034Z,81.91
2023-05-19T19:30:17.765Z,82.13
2023-05-19T19:32:50.509Z,82.48
2023-05-19T19:35:24.756Z,82.65
2023-05-19T19:37:58.590Z,82.67
2023-05-19T19:40:32.524Z,82.58
2023-05-19T19:43:05.378Z,82.41
2023-05-19T19:46:04.615Z,82.12
2023-05-19T19:49:00.427Z,82.23
2023-05-19T19:51:53.486Z,82.38
2023-05-19T19:54:46.375Z,82.40
2023-05-19T19:57:34.328Z,82.45
2023-05-19T20:00:19.296Z,82.63
2023-05-19T20:03:13.443Z,82.96
2023-05-19T20:06:07.718Z,83.35
2023-05-19T20:09:00.615Z,83.35
2023-05-19T20:11:45.718Z,83.58
2023-05-19T20:14:31.244Z,83.84
2023-05-19T20:17:24.323Z,83.96
2023-05-19T20:20:12.541Z,84.07
2023-05-19T20:23:05.177Z,84.18
2023-05-19T20:26:10.299Z,84.38
2023-05-19T20:29:04.193Z,84.42
2023-05-19T20:31:57.203Z,84.58
2023-05-19T20:34:43.290Z,84.73
2023-05-19T20:37:36.869Z,84.80
2023-05-19T20:40:23.307Z,84.96
2023-05-19T20:43:16.217Z,84.97
2023-05-19T20:46:09.174Z,84.97
2023-05-19T20:49:02.804Z,85.06
2023-05-19T20:51:55.833Z,85.21
2023-05-19T20:54:49.131Z,85.36
2023-05-19T20:57:41.698Z,85.51
2023-05-19T21:00:34.505Z,85.52
2023-05-19T21:03:11.833Z,85.70
2023-05-19T21:06:04.713Z,85.65
2023-05-19T21:08:57.635Z,85.71
2023-05-19T21:11:53.776Z,85.84
2023-05-19T21:14:39.115Z,85.98
2023-05-19T21:17:32.067Z,86.11
2023-05-19T21:20:16.334Z,86.20
2023-05-19T21:23:10.133Z,86.22
2023-05-19T21:26:01.710Z,86.21
2023-05-19T21:28:56.410Z,86.25
2023-05-19T21:31:42.197Z,86.33
2023-05-19T21:34:27.909Z,86.43
2023-05-19T21:37:11.848Z,86.52
2023-05-19T21:39:57.772Z,86.54
2023-05-19T21:42:52.658Z,86.56
2023-05-19T21:45:45.185Z,86.49
2023-05-19T21:48:38.858Z,86.49
2023-05-19T21:51:31.713Z,86.50
2023-05-19T21:54:25.870Z,86.49
2023-05-19T21:57:18.840Z,86.46
2023-05-19T22:00:06.517Z,86.47
2023-05-19T22:02:59.122Z,86.46
2023-05-19T22:05:56.386Z,86.45
2023-05-19T22:08:50.040Z,86.44
2023-05-19T22:11:44.691Z,86.41
2023-05-19T22:14:37.662Z,86.48
2023-05-19T22:17:30.874Z,86.53
2023-05-19T22:20:17.670Z,86.57
2023-05-19T22:23:11.467Z,86.59
2023-05-19T22:25:58.265Z,86.56
2023-05-19T22:28:33.785Z,86.58
2023-05-19T22:31:08.956Z,86.62
2023-05-19T22:33:41.443Z,86.67
2023-05-19T22:36:16.138Z,86.66
2023-05-19T22:38:49.057Z,86.74
2023-05-19T22:41:23.697Z,86.79
2023-05-19T22:43:57.052Z,86.71
2023-05-19T22:46:29.616Z,86.69
2023-05-19T22:49:23.649Z,86.73
2023-05-19T22:52:10.248Z,86.74
2023-05-19T22:54:42.892Z,86.80
2023-05-19T22:57:35.722Z,86.77
2023-05-19T23:00:28.508Z,86.72
2023-05-19T23:03:20.999Z,86.65
2023-05-19T23:06:12.184Z,86.67
2023-05-19T23:09:05.882Z,86.65
2023-05-19T23:11:58.783Z,86.62
2023-05-19T23:14:51.483Z,86.59
2023-05-19T23:17:29.819Z,86.63
2023-05-19T23:20:22.815Z,86.66
2023-05-19T23:23:15.445Z,86.65
2023-05-19T23:25:58.137Z,86.73
2023-05-19T23:28:49.191Z,86.74
2023-05-19T23:31:42.483Z,86.76
2023-05-19T23:34:28.997Z,86.86
2023-05-19T23:37:08.614Z,86.95
2023-05-19T23:40:01.249Z,86.96
2023-05-19T23:42:54.455Z,87.01
2023-05-19T23:45:30.350Z,87.02
2023-05-19T23:48:11.551Z,87.05
2023-05-19T23:51:04.584Z,87.10
2023-05-19T23:53:50.020Z,87.13
2023-05-19T23:56:41.424Z,87.19
2023-05-19T23:59:31.426Z,87.19
